Montbello, Colorado
Current Conditions -  °F | °C
As of 4:58 PM on Thursday 18 Dec 2014 (Local Time) from KBKF Reporting Station
Scattered Clouds Scattered Clouds  
Wind Chill: 27°   Ceiling: Unl
Heat Index: 34°   Visibility: 10mi
Dew Point: 27°   Wind: 8mph
Humidity: 74%   Direction: 10°N
Pressure: 30.04"   Gusts: NA
Location:  39.7897°N, 104.858°W
Report Text: KBKF 182358Z 01007KT 10SM FEW090 SCT200 01/M03 A3004 RMK AO2A SLP183 T00121030 10066 20012 52013
Loading
Personal Weather Stations






























Interactive Weather Map New forecast layout! Learn more

10-Day Weather Forecast

Advertisements
Track Severe Weather on mobile